»·PEaware :: DAL2259 KSNA-KSLC

DAL2259 :: KSNA-KSLC

FLIGHT INFORMATION

Flight Status: Arrived
Operator:
Delta Air Lines
More flights by this operator :: More flights under this callsign
Pilot: Scott W. (15065)
Aircraft: EMBRAER EMB-170/175
(E170)
More flights by this aircraft type
Origin: KSNA John Wayne-Orange Co
United States
Destination: KSLC Salt Lake City Intl
United States
More flights between these airports :: More routes between these airports
Route: +FINZZ2 BEALE Q842 WINEN MLF DELTA5
File this flight plan on PilotEdge
Remarks:
Altitude:
(Current/Filed)
33,000ft
Speed:
(Current/Filed)
427kts
Departed: 27-Apr-18 06:14 PM
Arrived: 27-Apr-18 07:38 PM
Distance/Time
Traveled:
511nm/1:24
Distance/Time
To Go:
Arrived

Flight Plot

Page will automatically refresh every two minutes.

Flight plan parsing failed; only flown route is shown


Map Options




Map Legend


Flown Route
Filed Route
Departure Airport
Arrival Airport
Navaid (VOR, NDB)
Fix

Horizontal Profiles

Position Reports

Time Latitude Longitude Heading Altitude Ground
Speed
27-Apr-18 17:53 33.681923 -117.860665 117 62ft 0kts
27-Apr-18 17:54 33.681923 -117.860665 117 62ft 0kts
27-Apr-18 17:55 33.681923 -117.860665 117 62ft 0kts
27-Apr-18 17:56 33.681923 -117.860665 117 62ft 0kts
27-Apr-18 17:57 33.681923 -117.860665 117 62ft 0kts
27-Apr-18 17:58 33.681923 -117.860665 117 62ft 0kts
27-Apr-18 17:59 33.681923 -117.860665 117 62ft 0kts
27-Apr-18 18:00 33.681923 -117.860665 117 62ft 0kts
27-Apr-18 18:01 33.681923 -117.860665 117 62ft 0kts
27-Apr-18 18:02 33.681923 -117.860665 117 62ft 0kts
27-Apr-18 18:03 33.681923 -117.860665 117 62ft 0kts
27-Apr-18 18:04 33.681923 -117.860665 117 62ft 0kts
27-Apr-18 18:05 33.681923 -117.860665 117 62ft 0kts
27-Apr-18 18:06 33.681923 -117.860665 117 62ft 0kts
27-Apr-18 18:07 33.682172 -117.861015 150 62ft 2kts
27-Apr-18 18:08 33.682440 -117.861092 195 62ft 0kts
27-Apr-18 18:09 33.682440 -117.861092 195 62ft 0kts
27-Apr-18 18:10 33.682372 -117.861121 199 62ft 3kts
27-Apr-18 18:11 33.680603 -117.862534 256 62ft 7kts
27-Apr-18 18:12 33.680678 -117.863104 293 62ft 10kts
27-Apr-18 18:13 33.678858 -117.866827 207 62ft 84kts
27-Apr-18 18:14 33.634238 -117.891475 192 1955ft 226kts
27-Apr-18 18:15 33.570825 -117.907984 212 4089ft 255kts
27-Apr-18 18:16 33.515474 -117.962713 227 6011ft 267kts
27-Apr-18 18:17 33.519821 -118.044420 299 8152ft 276kts
27-Apr-18 18:18 33.561178 -118.103580 324 10101ft 292kts
27-Apr-18 18:19 33.649147 -118.096655 20 12736ft 347kts
27-Apr-18 18:20 33.736278 -118.045304 25 15214ft 362kts
27-Apr-18 18:21 33.823802 -117.992780 23 17620ft 375kts
27-Apr-18 18:22 33.917389 -117.935976 29 20106ft 391kts
27-Apr-18 18:23 34.004926 -117.855747 36 22606ft 409kts
27-Apr-18 18:24 34.095280 -117.768368 42 25133ft 427kts
27-Apr-18 18:25 34.172293 -117.659695 51 27605ft 445kts
27-Apr-18 18:26 34.249074 -117.540761 50 30008ft 456kts
27-Apr-18 18:27 34.330952 -117.418800 49 31536ft 474kts
27-Apr-18 18:28 34.414318 -117.294302 50 32962ft 487kts
27-Apr-18 18:29 34.498353 -117.166705 50 32986ft 485kts
27-Apr-18 18:30 34.583345 -117.040217 49 32957ft 483kts
27-Apr-18 18:31 34.669042 -116.915726 48 32911ft 479kts
27-Apr-18 18:32 34.753916 -116.791879 48 32891ft 478kts
27-Apr-18 18:33 34.838302 -116.667901 48 32891ft 478kts
27-Apr-18 18:34 34.926104 -116.546554 45 32894ft 479kts
27-Apr-18 18:35 35.016533 -116.427096 45 32905ft 481kts
27-Apr-18 18:36 35.104686 -116.308930 47 32907ft 482kts
27-Apr-18 18:37 35.194301 -116.188189 46 32906ft 482kts
27-Apr-18 18:38 35.284224 -116.066958 46 32907ft 482kts
27-Apr-18 18:39 35.373822 -115.945262 46 32908ft 482kts
27-Apr-18 18:40 35.463270 -115.823256 46 32891ft 483kts
27-Apr-18 18:41 35.552935 -115.700581 46 32863ft 483kts
27-Apr-18 18:42 35.642131 -115.578123 46 32856ft 483kts
27-Apr-18 18:43 35.731307 -115.455065 46 32856ft 483kts
27-Apr-18 18:44 35.818359 -115.334864 47 32854ft 483kts
27-Apr-18 18:45 35.906472 -115.211315 47 32852ft 483kts
27-Apr-18 18:46 35.995221 -115.087249 47 32835ft 482kts
27-Apr-18 18:47 36.083864 -114.963566 47 32804ft 480kts
27-Apr-18 18:48 36.171521 -114.842971 42 32793ft 479kts
27-Apr-18 18:49 36.281628 -114.753176 24 32796ft 475kts
27-Apr-18 18:50 36.400027 -114.681783 24 32792ft 475kts
27-Apr-18 18:51 36.517156 -114.605218 26 32791ft 476kts
27-Apr-18 18:52 36.633320 -114.526752 26 32791ft 476kts
27-Apr-18 18:53 36.748773 -114.446898 28 32797ft 476kts
27-Apr-18 18:54 36.859951 -114.359541 30 32817ft 477kts
27-Apr-18 18:55 36.969665 -114.270971 31 32833ft 477kts
27-Apr-18 18:56 37.081171 -114.182034 30 32844ft 477kts
27-Apr-18 18:57 37.191576 -114.095374 30 32843ft 477kts
27-Apr-18 18:58 37.303724 -114.006967 30 32844ft 477kts
27-Apr-18 18:59 37.415371 -113.917863 30 32844ft 477kts
27-Apr-18 19:00 37.527107 -113.828272 30 32845ft 477kts
27-Apr-18 19:01 37.638671 -113.738605 30 32874ft 476kts
27-Apr-18 19:02 37.749993 -113.648643 30 32986ft 476kts
27-Apr-18 19:03 37.859032 -113.560564 31 33006ft 480kts
27-Apr-18 19:04 37.968498 -113.465226 38 33004ft 480kts
27-Apr-18 19:05 38.066658 -113.351741 42 33004ft 481kts
27-Apr-18 19:06 38.159639 -113.242125 41 32972ft 481kts
27-Apr-18 19:07 38.259017 -113.129478 41 32944ft 481kts
27-Apr-18 19:08 38.359369 -113.017376 34 32944ft 480kts
27-Apr-18 19:09 38.477799 -112.943838 18 32945ft 474kts
27-Apr-18 19:10 38.600860 -112.885041 19 32945ft 472kts
27-Apr-18 19:11 38.721553 -112.820902 21 32946ft 471kts
27-Apr-18 19:12 38.841623 -112.755576 21 32944ft 470kts
27-Apr-18 19:13 38.961928 -112.690740 20 32934ft 470kts
27-Apr-18 19:14 39.081626 -112.625936 20 32480ft 466kts
27-Apr-18 19:15 39.187347 -112.568710 20 30993ft 469kts
27-Apr-18 19:16 39.305927 -112.504883 18 29019ft 466kts
27-Apr-18 19:17 39.425799 -112.462122 11 27064ft 432kts
27-Apr-18 19:18 39.540961 -112.426912 11 25242ft 424kts
27-Apr-18 19:19 39.653516 -112.389905 12 23450ft 414kts
27-Apr-18 19:20 39.763122 -112.353041 13 21663ft 404kts
27-Apr-18 19:21 39.868508 -112.316697 14 19892ft 395kts
27-Apr-18 19:22 39.972904 -112.281178 13 18096ft 384kts
27-Apr-18 19:23 40.074598 -112.247125 14 17039ft 374kts
27-Apr-18 19:24 40.172447 -112.213924 14 15934ft 373kts
27-Apr-18 19:25 40.271651 -112.180394 14 14511ft 366kts
27-Apr-18 19:26 40.367606 -112.147731 14 13641ft 345kts
27-Apr-18 19:27 40.460735 -112.115924 14 13146ft 346kts
27-Apr-18 19:28 40.553747 -112.085012 10 12117ft 340kts
27-Apr-18 19:29 40.643862 -112.078905 357 11018ft 314kts
27-Apr-18 19:30 40.727645 -112.088932 354 10502ft 295kts
27-Apr-18 19:31 40.805968 -112.098401 355 9206ft 264kts
27-Apr-18 19:32 40.876226 -112.106583 355 7937ft 247kts
27-Apr-18 19:33 40.932994 -112.081133 80 6387ft 235kts
27-Apr-18 19:34 40.923029 -112.012286 163 6006ft 187kts
27-Apr-18 19:35 40.870602 -112.006612 174 5480ft 182kts
27-Apr-18 19:36 40.820883 -112.000828 174 4519ft 154kts
27-Apr-18 19:37 40.792736 -111.997391 164 4233ft 26kts
27-Apr-18 19:38 40.791017 -111.993064 85 4233ft 17kts
27-Apr-18 19:39 40.789881 -111.987397 87 4233ft 15kts
27-Apr-18 19:40 40.789276 -111.985263 160 4233ft 0kts
27-Apr-18 19:41 40.789266 -111.985259 160 4233ft 0kts

Navigation Log

Ident Type
Flight plan parsing failed, navigation log unavailable